sensor_id;sensor_type;location;lat;lon;timestamp;P1;durP1;ratioP1;P2;durP2;ratioP2
23404;SDS011;11875;49.356;2.718;2023-06-14T00:01:37;8.93;;;5.35;;
23404;SDS011;11875;49.356;2.718;2023-06-14T00:04:03;6.32;;;5.18;;
23404;SDS011;11875;49.356;2.718;2023-06-14T00:06:30;8.23;;;5.68;;
23404;SDS011;11875;49.356;2.718;2023-06-14T00:08:56;6.82;;;5.38;;
23404;SDS011;11875;49.356;2.718;2023-06-14T00:11:22;7.95;;;5.65;;
23404;SDS011;11875;49.356;2.718;2023-06-14T00:13:47;7.65;;;5.63;;
23404;SDS011;11875;49.356;2.718;2023-06-14T00:16:13;11.43;;;5.82;;
23404;SDS011;11875;49.356;2.718;2023-06-14T00:18:39;7.40;;;5.68;;
23404;SDS011;11875;49.356;2.718;2023-06-14T00:21:04;9.00;;;5.63;;
23404;SDS011;11875;49.356;2.718;2023-06-14T00:23:30;7.45;;;5.68;;
23404;SDS011;11875;49.356;2.718;2023-06-14T00:25:56;7.15;;;6.00;;
23404;SDS011;11875;49.356;2.718;2023-06-14T00:28:21;12.80;;;5.63;;
23404;SDS011;11875;49.356;2.718;2023-06-14T00:30:47;11.13;;;5.68;;
23404;SDS011;11875;49.356;2.718;2023-06-14T00:33:13;6.93;;;5.70;;
23404;SDS011;11875;49.356;2.718;2023-06-14T00:35:38;8.23;;;6.20;;
23404;SDS011;11875;49.356;2.718;2023-06-14T00:38:04;9.40;;;6.22;;
23404;SDS011;11875;49.356;2.718;2023-06-14T00:40:30;6.88;;;5.82;;
23404;SDS011;11875;49.356;2.718;2023-06-14T00:42:56;10.88;;;6.90;;
23404;SDS011;11875;49.356;2.718;2023-06-14T00:45:21;6.53;;;5.82;;
23404;SDS011;11875;49.356;2.718;2023-06-14T00:47:47;7.68;;;5.72;;
23404;SDS011;11875;49.356;2.718;2023-06-14T00:50:15;6.80;;;5.78;;
23404;SDS011;11875;49.356;2.718;2023-06-14T00:52:41;8.43;;;5.55;;
23404;SDS011;11875;49.356;2.718;2023-06-14T00:55:07;6.70;;;5.60;;
23404;SDS011;11875;49.356;2.718;2023-06-14T00:57:33;9.07;;;5.57;;
23404;SDS011;11875;49.356;2.718;2023-06-14T01:00:02;6.60;;;5.75;;
23404;SDS011;11875;49.356;2.718;2023-06-14T01:02:33;11.27;;;5.78;;
23404;SDS011;11875;49.356;2.718;2023-06-14T01:04:59;8.90;;;5.97;;
23404;SDS011;11875;49.356;2.718;2023-06-14T01:15:34;9.05;;;5.95;;
23404;SDS011;11875;49.356;2.718;2023-06-14T01:18:01;11.57;;;6.53;;
23404;SDS011;11875;49.356;2.718;2023-06-14T01:20:31;9.50;;;6.70;;
23404;SDS011;11875;49.356;2.718;2023-06-14T01:22:58;7.47;;;6.07;;
23404;SDS011;11875;49.356;2.718;2023-06-14T01:25:24;7.60;;;6.03;;
23404;SDS011;11875;49.356;2.718;2023-06-14T01:28:00;8.13;;;6.90;;
23404;SDS011;11875;49.356;2.718;2023-06-14T01:30:29;7.40;;;6.05;;
23404;SDS011;11875;49.356;2.718;2023-06-14T01:32:56;7.72;;;5.80;;
23404;SDS011;11875;49.356;2.718;2023-06-14T01:35:22;8.90;;;5.90;;
23404;SDS011;11875;49.356;2.718;2023-06-14T01:37:48;9.30;;;6.18;;
23404;SDS011;11875;49.356;2.718;2023-06-14T01:40:15;9.93;;;5.85;;
23404;SDS011;11875;49.356;2.718;2023-06-14T01:42:45;8.18;;;5.95;;
23404;SDS011;11875;49.356;2.718;2023-06-14T01:45:13;9.32;;;6.30;;
23404;SDS011;11875;49.356;2.718;2023-06-14T01:47:40;9.30;;;6.45;;
23404;SDS011;11875;49.356;2.718;2023-06-14T01:50:06;7.50;;;6.60;;
23404;SDS011;11875;49.356;2.718;2023-06-14T01:52:32;10.50;;;6.25;;
23404;SDS011;11875;49.356;2.718;2023-06-14T01:54:58;6.70;;;6.00;;
23404;SDS011;11875;49.356;2.718;2023-06-14T01:57:27;8.05;;;5.75;;
23404;SDS011;11875;49.356;2.718;2023-06-14T01:59:53;11.02;;;6.40;;
23404;SDS011;11875;49.356;2.718;2023-06-14T02:02:19;7.32;;;5.95;;
23404;SDS011;11875;49.356;2.718;2023-06-14T02:04:44;7.38;;;5.40;;
23404;SDS011;11875;49.356;2.718;2023-06-14T02:07:12;9.68;;;6.35;;
23404;SDS011;11875;49.356;2.718;2023-06-14T02:09:38;7.00;;;5.72;;
23404;SDS011;11875;49.356;2.718;2023-06-14T02:12:05;15.35;;;5.90;;
23404;SDS011;11875;49.356;2.718;2023-06-14T02:14:31;7.70;;;6.05;;
23404;SDS011;11875;49.356;2.718;2023-06-14T02:16:57;7.43;;;6.30;;
23404;SDS011;11875;49.356;2.718;2023-06-14T02:19:23;7.97;;;6.10;;
23404;SDS011;11875;49.356;2.718;2023-06-14T02:21:49;7.10;;;6.07;;
23404;SDS011;11875;49.356;2.718;2023-06-14T02:24:15;7.72;;;6.10;;
23404;SDS011;11875;49.356;2.718;2023-06-14T02:26:41;6.35;;;5.55;;
23404;SDS011;11875;49.356;2.718;2023-06-14T02:29:07;7.38;;;6.15;;
23404;SDS011;11875;49.356;2.718;2023-06-14T02:31:37;7.88;;;5.55;;
23404;SDS011;11875;49.356;2.718;2023-06-14T02:34:03;6.10;;;5.50;;
23404;SDS011;11875;49.356;2.718;2023-06-14T02:36:29;11.77;;;6.00;;
23404;SDS011;11875;49.356;2.718;2023-06-14T02:38:55;8.10;;;6.38;;
23404;SDS011;11875;49.356;2.718;2023-06-14T02:41:24;7.97;;;6.03;;
23404;SDS011;11875;49.356;2.718;2023-06-14T02:43:51;8.40;;;6.00;;
23404;SDS011;11875;49.356;2.718;2023-06-14T02:46:16;7.13;;;6.43;;
23404;SDS011;11875;49.356;2.718;2023-06-14T02:48:42;7.10;;;5.80;;
23404;SDS011;11875;49.356;2.718;2023-06-14T02:51:08;7.25;;;5.82;;
23404;SDS011;11875;49.356;2.718;2023-06-14T02:53:34;7.65;;;6.03;;
23404;SDS011;11875;49.356;2.718;2023-06-14T02:56:01;7.22;;;6.45;;
23404;SDS011;11875;49.356;2.718;2023-06-14T02:58:28;6.95;;;5.80;;
23404;SDS011;11875;49.356;2.718;2023-06-14T03:00:54;8.85;;;5.85;;
23404;SDS011;11875;49.356;2.718;2023-06-14T03:03:20;9.32;;;6.25;;
23404;SDS011;11875;49.356;2.718;2023-06-14T03:05:47;6.93;;;5.78;;
23404;SDS011;11875;49.356;2.718;2023-06-14T03:08:14;6.82;;;5.78;;
23404;SDS011;11875;49.356;2.718;2023-06-14T03:10:47;7.82;;;6.03;;
23404;SDS011;11875;49.356;2.718;2023-06-14T03:13:14;8.00;;;6.07;;
23404;SDS011;11875;49.356;2.718;2023-06-14T03:15:41;10.43;;;6.30;;
23404;SDS011;11875;49.356;2.718;2023-06-14T03:18:07;7.07;;;5.95;;
23404;SDS011;11875;49.356;2.718;2023-06-14T03:20:34;6.10;;;5.35;;
23404;SDS011;11875;49.356;2.718;2023-06-14T03:23:01;9.43;;;5.68;;
23404;SDS011;11875;49.356;2.718;2023-06-14T03:25:27;18.77;;;7.70;;
23404;SDS011;11875;49.356;2.718;2023-06-14T03:27:54;10.85;;;7.40;;
23404;SDS011;11875;49.356;2.718;2023-06-14T03:30:20;10.93;;;6.25;;
23404;SDS011;11875;49.356;2.718;2023-06-14T03:32:46;12.73;;;6.22;;
23404;SDS011;11875;49.356;2.718;2023-06-14T03:35:11;11.02;;;6.63;;
23404;SDS011;11875;49.356;2.718;2023-06-14T03:37:42;11.98;;;6.72;;
23404;SDS011;11875;49.356;2.718;2023-06-14T03:40:12;7.75;;;6.28;;
23404;SDS011;11875;49.356;2.718;2023-06-14T03:42:38;10.45;;;6.30;;
23404;SDS011;11875;49.356;2.718;2023-06-14T03:45:05;8.35;;;6.50;;
23404;SDS011;11875;49.356;2.718;2023-06-14T03:47:31;9.85;;;6.50;;
23404;SDS011;11875;49.356;2.718;2023-06-14T03:49:57;10.38;;;6.18;;
23404;SDS011;11875;49.356;2.718;2023-06-14T03:52:22;7.43;;;6.25;;
23404;SDS011;11875;49.356;2.718;2023-06-14T03:54:48;6.78;;;6.07;;
23404;SDS011;11875;49.356;2.718;2023-06-14T03:57:14;8.95;;;6.13;;
23404;SDS011;11875;49.356;2.718;2023-06-14T03:59:40;10.10;;;6.68;;
23404;SDS011;11875;49.356;2.718;2023-06-14T04:02:06;13.35;;;6.15;;
23404;SDS011;11875;49.356;2.718;2023-06-14T04:04:32;12.15;;;6.75;;
23404;SDS011;11875;49.356;2.718;2023-06-14T04:07:00;9.02;;;6.30;;
23404;SDS011;11875;49.356;2.718;2023-06-14T04:09:28;6.60;;;5.90;;
23404;SDS011;11875;49.356;2.718;2023-06-14T04:11:54;24.38;;;12.25;;
23404;SDS011;11875;49.356;2.718;2023-06-14T04:14:20;7.47;;;6.63;;
23404;SDS011;11875;49.356;2.718;2023-06-14T04:16:46;6.53;;;5.78;;
23404;SDS011;11875;49.356;2.718;2023-06-14T04:19:13;12.55;;;6.25;;
23404;SDS011;11875;49.356;2.718;2023-06-14T04:21:38;7.75;;;6.30;;
23404;SDS011;11875;49.356;2.718;2023-06-14T04:24:04;8.57;;;6.00;;
23404;SDS011;11875;49.356;2.718;2023-06-14T04:26:30;8.80;;;6.38;;
23404;SDS011;11875;49.356;2.718;2023-06-14T04:28:58;9.77;;;7.13;;
23404;SDS011;11875;49.356;2.718;2023-06-14T04:31:28;8.80;;;6.50;;
23404;SDS011;11875;49.356;2.718;2023-06-14T04:33:54;8.55;;;7.05;;
23404;SDS011;11875;49.356;2.718;2023-06-14T04:36:20;9.85;;;6.72;;
23404;SDS011;11875;49.356;2.718;2023-06-14T04:38:47;8.75;;;6.80;;
23404;SDS011;11875;49.356;2.718;2023-06-14T04:41:14;13.55;;;7.28;;
23404;SDS011;11875;49.356;2.718;2023-06-14T04:43:41;12.07;;;7.03;;
23404;SDS011;11875;49.356;2.718;2023-06-14T04:46:07;8.07;;;6.95;;
23404;SDS011;11875;49.356;2.718;2023-06-14T04:48:36;9.15;;;6.90;;
23404;SDS011;11875;49.356;2.718;2023-06-14T04:51:10;13.52;;;6.90;;
23404;SDS011;11875;49.356;2.718;2023-06-14T04:53:36;14.23;;;6.82;;
23404;SDS011;11875;49.356;2.718;2023-06-14T04:56:02;8.05;;;7.00;;
23404;SDS011;11875;49.356;2.718;2023-06-14T04:58:28;9.63;;;6.90;;
23404;SDS011;11875;49.356;2.718;2023-06-14T05:00:54;11.48;;;7.07;;
23404;SDS011;11875;49.356;2.718;2023-06-14T05:03:24;10.20;;;7.18;;
23404;SDS011;11875;49.356;2.718;2023-06-14T05:05:50;12.10;;;6.53;;
23404;SDS011;11875;49.356;2.718;2023-06-14T05:08:18;7.80;;;6.68;;
23404;SDS011;11875;49.356;2.718;2023-06-14T05:10:45;9.98;;;7.32;;
23404;SDS011;11875;49.356;2.718;2023-06-14T05:13:10;8.98;;;6.82;;
23404;SDS011;11875;49.356;2.718;2023-06-14T05:15:36;10.15;;;6.85;;
23404;SDS011;11875;49.356;2.718;2023-06-14T05:18:02;14.00;;;6.88;;
23404;SDS011;11875;49.356;2.718;2023-06-14T05:20:27;9.02;;;6.20;;
23404;SDS011;11875;49.356;2.718;2023-06-14T05:22:53;8.00;;;6.80;;
23404;SDS011;11875;49.356;2.718;2023-06-14T05:25:19;27.80;;;7.50;;
23404;SDS011;11875;49.356;2.718;2023-06-14T05:27:46;9.63;;;6.40;;
23404;SDS011;11875;49.356;2.718;2023-06-14T05:30:12;11.32;;;6.85;;
23404;SDS011;11875;49.356;2.718;2023-06-14T05:32:39;10.77;;;6.38;;
23404;SDS011;11875;49.356;2.718;2023-06-14T05:35:05;16.15;;;6.63;;
23404;SDS011;11875;49.356;2.718;2023-06-14T05:37:31;8.90;;;7.70;;
23404;SDS011;11875;49.356;2.718;2023-06-14T05:39:57;11.57;;;7.10;;
23404;SDS011;11875;49.356;2.718;2023-06-14T05:42:22;9.52;;;7.10;;
23404;SDS011;11875;49.356;2.718;2023-06-14T05:44:48;10.93;;;6.57;;
23404;SDS011;11875;49.356;2.718;2023-06-14T05:47:14;11.77;;;6.72;;
23404;SDS011;11875;49.356;2.718;2023-06-14T05:49:39;10.23;;;6.55;;
23404;SDS011;11875;49.356;2.718;2023-06-14T05:52:05;7.50;;;6.70;;
23404;SDS011;11875;49.356;2.718;2023-06-14T05:54:31;9.98;;;6.47;;
23404;SDS011;11875;49.356;2.718;2023-06-14T05:56:57;7.47;;;6.70;;
23404;SDS011;11875;49.356;2.718;2023-06-14T05:59:26;8.73;;;7.25;;
23404;SDS011;11875;49.356;2.718;2023-06-14T06:01:52;10.35;;;7.22;;
23404;SDS011;11875;49.356;2.718;2023-06-14T06:04:18;9.18;;;6.47;;
23404;SDS011;11875;49.356;2.718;2023-06-14T06:06:44;9.75;;;7.18;;
23404;SDS011;11875;49.356;2.718;2023-06-14T06:09:11;8.70;;;6.78;;
23404;SDS011;11875;49.356;2.718;2023-06-14T06:11:37;10.32;;;6.25;;
23404;SDS011;11875;49.356;2.718;2023-06-14T06:14:02;8.07;;;6.93;;
23404;SDS011;11875;49.356;2.718;2023-06-14T06:16:28;7.47;;;6.32;;
23404;SDS011;11875;49.356;2.718;2023-06-14T06:18:54;11.02;;;7.45;;
23404;SDS011;11875;49.356;2.718;2023-06-14T06:21:19;9.82;;;7.07;;
23404;SDS011;11875;49.356;2.718;2023-06-14T06:23:45;12.65;;;7.63;;
23404;SDS011;11875;49.356;2.718;2023-06-14T06:26:10;10.73;;;6.70;;
23404;SDS011;11875;49.356;2.718;2023-06-14T06:28:36;8.68;;;6.57;;
23404;SDS011;11875;49.356;2.718;2023-06-14T06:31:01;7.55;;;6.32;;
23404;SDS011;11875;49.356;2.718;2023-06-14T06:33:28;10.38;;;6.60;;
23404;SDS011;11875;49.356;2.718;2023-06-14T06:35:53;11.20;;;6.57;;
23404;SDS011;11875;49.356;2.718;2023-06-14T06:38:19;8.77;;;6.28;;
23404;SDS011;11875;49.356;2.718;2023-06-14T06:40:45;7.93;;;6.43;;
23404;SDS011;11875;49.356;2.718;2023-06-14T06:43:10;10.98;;;6.18;;
23404;SDS011;11875;49.356;2.718;2023-06-14T06:45:38;16.35;;;6.75;;
23404;SDS011;11875;49.356;2.718;2023-06-14T06:48:05;6.80;;;5.97;;
23404;SDS011;11875;49.356;2.718;2023-06-14T06:50:30;8.27;;;6.20;;
23404;SDS011;11875;49.356;2.718;2023-06-14T06:52:56;9.88;;;6.72;;
23404;SDS011;11875;49.356;2.718;2023-06-14T06:55:22;13.07;;;7.07;;
23404;SDS011;11875;49.356;2.718;2023-06-14T06:57:48;12.05;;;7.50;;
23404;SDS011;11875;49.356;2.718;2023-06-14T07:00:15;8.77;;;6.60;;
23404;SDS011;11875;49.356;2.718;2023-06-14T07:02:41;14.30;;;7.07;;
23404;SDS011;11875;49.356;2.718;2023-06-14T07:05:07;8.55;;;6.65;;
23404;SDS011;11875;49.356;2.718;2023-06-14T07:07:33;12.98;;;6.68;;
23404;SDS011;11875;49.356;2.718;2023-06-14T07:09:59;8.23;;;6.20;;
23404;SDS011;11875;49.356;2.718;2023-06-14T07:12:25;6.90;;;6.18;;
23404;SDS011;11875;49.356;2.718;2023-06-14T07:14:51;7.75;;;6.20;;
23404;SDS011;11875;49.356;2.718;2023-06-14T07:17:16;9.60;;;5.75;;
23404;SDS011;11875;49.356;2.718;2023-06-14T07:19:42;7.60;;;6.03;;
23404;SDS011;11875;49.356;2.718;2023-06-14T07:22:08;13.35;;;6.80;;
23404;SDS011;11875;49.356;2.718;2023-06-14T07:24:33;11.32;;;5.72;;
23404;SDS011;11875;49.356;2.718;2023-06-14T07:27:01;9.48;;;5.50;;
23404;SDS011;11875;49.356;2.718;2023-06-14T07:29:28;7.97;;;5.97;;
23404;SDS011;11875;49.356;2.718;2023-06-14T07:31:53;7.38;;;5.57;;
23404;SDS011;11875;49.356;2.718;2023-06-14T07:34:19;10.40;;;5.85;;
23404;SDS011;11875;49.356;2.718;2023-06-14T07:36:45;9.77;;;5.35;;
23404;SDS011;11875;49.356;2.718;2023-06-14T07:39:11;8.55;;;5.57;;
23404;SDS011;11875;49.356;2.718;2023-06-14T07:41:37;10.20;;;5.40;;
23404;SDS011;11875;49.356;2.718;2023-06-14T07:44:02;8.02;;;4.90;;
23404;SDS011;11875;49.356;2.718;2023-06-14T07:46:28;7.85;;;5.30;;
23404;SDS011;11875;49.356;2.718;2023-06-14T07:48:54;10.38;;;4.93;;
23404;SDS011;11875;49.356;2.718;2023-06-14T07:51:19;7.68;;;5.20;;
23404;SDS011;11875;49.356;2.718;2023-06-14T07:53:46;9.40;;;5.32;;
23404;SDS011;11875;49.356;2.718;2023-06-14T07:56:12;50.05;;;6.57;;
23404;SDS011;11875;49.356;2.718;2023-06-14T07:58:38;8.23;;;5.38;;
23404;SDS011;11875;49.356;2.718;2023-06-14T08:01:04;8.88;;;5.10;;
23404;SDS011;11875;49.356;2.718;2023-06-14T08:03:31;7.40;;;5.30;;
23404;SDS011;11875;49.356;2.718;2023-06-14T08:05:57;9.43;;;5.03;;
23404;SDS011;11875;49.356;2.718;2023-06-14T08:08:23;7.68;;;5.75;;
23404;SDS011;11875;49.356;2.718;2023-06-14T08:10:48;9.93;;;5.45;;
23404;SDS011;11875;49.356;2.718;2023-06-14T08:13:14;11.35;;;5.32;;
23404;SDS011;11875;49.356;2.718;2023-06-14T08:15:40;7.13;;;4.90;;
23404;SDS011;11875;49.356;2.718;2023-06-14T08:18:05;10.95;;;5.28;;
23404;SDS011;11875;49.356;2.718;2023-06-14T08:20:31;6.15;;;4.95;;
23404;SDS011;11875;49.356;2.718;2023-06-14T08:22:57;5.75;;;4.80;;
23404;SDS011;11875;49.356;2.718;2023-06-14T08:25:23;16.42;;;5.85;;
23404;SDS011;11875;49.356;2.718;2023-06-14T08:27:48;16.95;;;5.50;;
23404;SDS011;11875;49.356;2.718;2023-06-14T08:30:16;8.98;;;4.97;;
23404;SDS011;11875;49.356;2.718;2023-06-14T08:32:42;18.40;;;5.85;;
23404;SDS011;11875;49.356;2.718;2023-06-14T08:35:08;7.38;;;5.30;;
23404;SDS011;11875;49.356;2.718;2023-06-14T08:37:37;8.00;;;4.88;;
23404;SDS011;11875;49.356;2.718;2023-06-14T08:40:07;14.43;;;5.10;;
23404;SDS011;11875;49.356;2.718;2023-06-14T08:42:50;21.67;;;5.65;;
23404;SDS011;11875;49.356;2.718;2023-06-14T08:45:17;5.63;;;5.05;;
23404;SDS011;11875;49.356;2.718;2023-06-14T08:47:45;5.32;;;4.82;;
23404;SDS011;11875;49.356;2.718;2023-06-14T08:50:16;7.57;;;5.20;;
23404;SDS011;11875;49.356;2.718;2023-06-14T08:52:46;6.43;;;4.78;;
23404;SDS011;11875;49.356;2.718;2023-06-14T08:55:17;6.43;;;4.80;;
23404;SDS011;11875;49.356;2.718;2023-06-14T08:57:45;5.78;;;5.18;;
23404;SDS011;11875;49.356;2.718;2023-06-14T09:00:14;8.70;;;5.13;;
23404;SDS011;11875;49.356;2.718;2023-06-14T09:02:40;5.57;;;4.90;;
23404;SDS011;11875;49.356;2.718;2023-06-14T09:05:08;5.82;;;5.13;;
23404;SDS011;11875;49.356;2.718;2023-06-14T09:07:35;7.35;;;4.88;;
23404;SDS011;11875;49.356;2.718;2023-06-14T09:10:10;6.40;;;4.78;;
23404;SDS011;11875;49.356;2.718;2023-06-14T09:12:39;15.30;;;6.10;;
23404;SDS011;11875;49.356;2.718;2023-06-14T09:15:05;6.45;;;4.80;;
23404;SDS011;11875;49.356;2.718;2023-06-14T09:17:33;7.40;;;4.13;;
23404;SDS011;11875;49.356;2.718;2023-06-14T09:20:03;7.18;;;5.43;;
23404;SDS011;11875;49.356;2.718;2023-06-14T09:22:34;5.00;;;4.50;;
23404;SDS011;11875;49.356;2.718;2023-06-14T09:25:00;7.53;;;4.70;;
23404;SDS011;11875;49.356;2.718;2023-06-14T09:27:26;9.15;;;4.75;;
23404;SDS011;11875;49.356;2.718;2023-06-14T09:29:54;14.65;;;5.18;;
23404;SDS011;11875;49.356;2.718;2023-06-14T09:32:20;6.35;;;4.80;;
23404;SDS011;11875;49.356;2.718;2023-06-14T09:34:46;8.68;;;4.53;;
23404;SDS011;11875;49.356;2.718;2023-06-14T09:37:12;5.13;;;4.38;;
23404;SDS011;11875;49.356;2.718;2023-06-14T09:39:50;7.13;;;4.80;;
23404;SDS011;11875;49.356;2.718;2023-06-14T09:42:16;11.07;;;4.57;;
23404;SDS011;11875;49.356;2.718;2023-06-14T09:44:43;5.40;;;4.57;;
23404;SDS011;11875;49.356;2.718;2023-06-14T09:47:11;4.88;;;4.38;;
23404;SDS011;11875;49.356;2.718;2023-06-14T09:49:37;7.93;;;4.45;;
23404;SDS011;11875;49.356;2.718;2023-06-14T09:52:04;6.30;;;4.28;;
23404;SDS011;11875;49.356;2.718;2023-06-14T09:54:31;6.47;;;4.38;;
23404;SDS011;11875;49.356;2.718;2023-06-14T09:57:01;5.55;;;3.72;;
23404;SDS011;11875;49.356;2.718;2023-06-14T09:59:29;5.55;;;4.70;;
23404;SDS011;11875;49.356;2.718;2023-06-14T10:01:58;5.65;;;4.40;;
23404;SDS011;11875;49.356;2.718;2023-06-14T10:04:25;8.00;;;4.50;;
23404;SDS011;11875;49.356;2.718;2023-06-14T10:06:54;7.70;;;4.32;;
23404;SDS011;11875;49.356;2.718;2023-06-14T10:09:20;5.13;;;4.13;;
23404;SDS011;11875;49.356;2.718;2023-06-14T10:11:47;5.55;;;4.00;;
23404;SDS011;11875;49.356;2.718;2023-06-14T10:14:12;9.90;;;3.83;;
23404;SDS011;11875;49.356;2.718;2023-06-14T10:16:47;13.07;;;4.57;;
23404;SDS011;11875;49.356;2.718;2023-06-14T10:19:28;8.68;;;4.57;;
23404;SDS011;11875;49.356;2.718;2023-06-14T10:22:01;7.00;;;4.10;;
23404;SDS011;11875;49.356;2.718;2023-06-14T10:24:32;5.97;;;4.45;;
23404;SDS011;11875;49.356;2.718;2023-06-14T10:27:00;4.80;;;3.97;;
23404;SDS011;11875;49.356;2.718;2023-06-14T10:29:26;4.50;;;4.03;;
23404;SDS011;11875;49.356;2.718;2023-06-14T10:31:57;6.43;;;4.22;;
23404;SDS011;11875;49.356;2.718;2023-06-14T10:34:27;10.52;;;4.32;;
23404;SDS011;11875;49.356;2.718;2023-06-14T10:37:01;11.00;;;4.15;;
23404;SDS011;11875;49.356;2.718;2023-06-14T10:39:31;6.65;;;4.68;;
23404;SDS011;11875;49.356;2.718;2023-06-14T10:42:01;5.13;;;4.35;;
23404;SDS011;11875;49.356;2.718;2023-06-14T10:46:55;7.22;;;4.30;;
23404;SDS011;11875;49.356;2.718;2023-06-14T10:52:27;5.07;;;4.35;;
23404;SDS011;11875;49.356;2.718;2023-06-14T10:55:10;6.13;;;4.43;;
23404;SDS011;11875;49.356;2.718;2023-06-14T10:57:43;4.68;;;4.28;;
23404;SDS011;11875;49.356;2.718;2023-06-14T11:00:16;25.50;;;5.00;;
23404;SDS011;11875;49.356;2.718;2023-06-14T11:05:57;7.40;;;4.53;;
23404;SDS011;11875;49.356;2.718;2023-06-14T11:08:47;4.65;;;3.97;;
23404;SDS011;11875;49.356;2.718;2023-06-14T11:11:21;5.00;;;3.80;;
23404;SDS011;11875;49.356;2.718;2023-06-14T11:13:48;9.55;;;4.20;;
23404;SDS011;11875;49.356;2.718;2023-06-14T11:16:15;8.25;;;4.00;;
23404;SDS011;11875;49.356;2.718;2023-06-14T11:18:42;27.90;;;5.28;;
23404;SDS011;11875;49.356;2.718;2023-06-14T11:21:09;5.13;;;4.20;;
23404;SDS011;11875;49.356;2.718;2023-06-14T11:23:35;6.20;;;4.25;;
23404;SDS011;11875;49.356;2.718;2023-06-14T11:26:01;5.80;;;4.00;;
23404;SDS011;11875;49.356;2.718;2023-06-14T11:28:37;4.50;;;4.10;;
23404;SDS011;11875;49.356;2.718;2023-06-14T11:31:04;4.40;;;4.00;;
23404;SDS011;11875;49.356;2.718;2023-06-14T11:33:29;5.43;;;4.50;;
23404;SDS011;11875;49.356;2.718;2023-06-14T11:35:55;5.72;;;4.30;;
23404;SDS011;11875;49.356;2.718;2023-06-14T11:38:21;5.07;;;4.55;;
23404;SDS011;11875;49.356;2.718;2023-06-14T11:40:47;4.50;;;4.07;;
23404;SDS011;11875;49.356;2.718;2023-06-14T11:43:12;5.70;;;4.38;;
23404;SDS011;11875;49.356;2.718;2023-06-14T11:45:39;6.00;;;4.13;;
23404;SDS011;11875;49.356;2.718;2023-06-14T11:48:05;6.28;;;4.40;;
23404;SDS011;11875;49.356;2.718;2023-06-14T11:50:31;7.93;;;4.40;;
23404;SDS011;11875;49.356;2.718;2023-06-14T11:53:01;7.35;;;4.43;;
23404;SDS011;11875;49.356;2.718;2023-06-14T11:55:32;6.55;;;4.30;;
23404;SDS011;11875;49.356;2.718;2023-06-14T11:58:09;5.15;;;4.68;;
23404;SDS011;11875;49.356;2.718;2023-06-14T12:00:35;10.93;;;4.97;;
23404;SDS011;11875;49.356;2.718;2023-06-14T12:03:02;8.48;;;4.75;;
23404;SDS011;11875;49.356;2.718;2023-06-14T12:05:28;7.85;;;7.03;;
23404;SDS011;11875;49.356;2.718;2023-06-14T12:08:00;7.82;;;4.45;;
23404;SDS011;11875;49.356;2.718;2023-06-14T12:10:28;4.60;;;4.20;;
23404;SDS011;11875;49.356;2.718;2023-06-14T12:13:00;5.00;;;4.50;;
23404;SDS011;11875;49.356;2.718;2023-06-14T12:15:29;7.53;;;4.22;;
23404;SDS011;11875;49.356;2.718;2023-06-14T12:17:57;7.07;;;4.38;;
23404;SDS011;11875;49.356;2.718;2023-06-14T12:20:28;6.38;;;4.35;;
23404;SDS011;11875;49.356;2.718;2023-06-14T12:22:56;5.28;;;4.22;;
23404;SDS011;11875;49.356;2.718;2023-06-14T12:25:30;6.53;;;4.53;;
23404;SDS011;11875;49.356;2.718;2023-06-14T12:27:57;6.88;;;4.75;;
23404;SDS011;11875;49.356;2.718;2023-06-14T12:30:23;7.78;;;4.20;;
23404;SDS011;11875;49.356;2.718;2023-06-14T12:32:49;6.65;;;4.22;;
23404;SDS011;11875;49.356;2.718;2023-06-14T12:35:16;6.22;;;4.75;;
23404;SDS011;11875;49.356;2.718;2023-06-14T12:37:43;4.72;;;4.10;;
23404;SDS011;11875;49.356;2.718;2023-06-14T12:40:09;6.40;;;4.68;;
23404;SDS011;11875;49.356;2.718;2023-06-14T12:42:36;8.85;;;4.50;;
23404;SDS011;11875;49.356;2.718;2023-06-14T12:45:02;5.47;;;4.50;;
23404;SDS011;11875;49.356;2.718;2023-06-14T12:47:27;9.10;;;4.88;;
23404;SDS011;11875;49.356;2.718;2023-06-14T12:49:53;7.95;;;5.03;;
23404;SDS011;11875;49.356;2.718;2023-06-14T12:52:19;5.57;;;4.43;;
23404;SDS011;11875;49.356;2.718;2023-06-14T12:54:44;6.65;;;4.63;;
23404;SDS011;11875;49.356;2.718;2023-06-14T12:57:10;6.20;;;4.22;;
23404;SDS011;11875;49.356;2.718;2023-06-14T12:59:36;5.13;;;4.63;;
23404;SDS011;11875;49.356;2.718;2023-06-14T13:02:15;6.15;;;4.30;;
23404;SDS011;11875;49.356;2.718;2023-06-14T13:04:42;8.63;;;4.45;;
23404;SDS011;11875;49.356;2.718;2023-06-14T13:07:08;9.43;;;4.90;;
23404;SDS011;11875;49.356;2.718;2023-06-14T13:09:35;8.98;;;4.22;;
23404;SDS011;11875;49.356;2.718;2023-06-14T13:12:01;4.85;;;4.13;;
23404;SDS011;11875;49.356;2.718;2023-06-14T13:14:27;6.70;;;4.38;;
23404;SDS011;11875;49.356;2.718;2023-06-14T13:16:53;4.63;;;4.10;;
23404;SDS011;11875;49.356;2.718;2023-06-14T13:19:18;5.03;;;4.25;;
23404;SDS011;11875;49.356;2.718;2023-06-14T13:21:44;7.13;;;4.10;;
23404;SDS011;11875;49.356;2.718;2023-06-14T13:24:10;5.57;;;4.50;;
23404;SDS011;11875;49.356;2.718;2023-06-14T13:26:36;6.20;;;4.05;;
23404;SDS011;11875;49.356;2.718;2023-06-14T13:29:01;5.85;;;4.43;;
23404;SDS011;11875;49.356;2.718;2023-06-14T13:31:27;4.32;;;3.92;;
23404;SDS011;11875;49.356;2.718;2023-06-14T13:33:52;4.65;;;4.15;;
23404;SDS011;11875;49.356;2.718;2023-06-14T13:36:18;6.90;;;4.47;;
23404;SDS011;11875;49.356;2.718;2023-06-14T13:38:43;8.85;;;4.50;;
23404;SDS011;11875;49.356;2.718;2023-06-14T13:41:09;7.43;;;4.43;;
23404;SDS011;11875;49.356;2.718;2023-06-14T13:43:35;8.48;;;4.40;;
23404;SDS011;11875;49.356;2.718;2023-06-14T13:46:00;6.55;;;4.45;;
23404;SDS011;11875;49.356;2.718;2023-06-14T13:48:26;6.30;;;4.40;;
23404;SDS011;11875;49.356;2.718;2023-06-14T13:50:52;7.97;;;4.38;;
23404;SDS011;11875;49.356;2.718;2023-06-14T13:53:17;5.15;;;4.55;;
23404;SDS011;11875;49.356;2.718;2023-06-14T13:55:43;5.93;;;4.20;;
23404;SDS011;11875;49.356;2.718;2023-06-14T13:58:09;7.10;;;4.45;;
23404;SDS011;11875;49.356;2.718;2023-06-14T14:00:35;6.55;;;4.30;;
23404;SDS011;11875;49.356;2.718;2023-06-14T14:03:05;5.35;;;4.32;;
23404;SDS011;11875;49.356;2.718;2023-06-14T14:05:31;6.40;;;4.53;;
23404;SDS011;11875;49.356;2.718;2023-06-14T14:07:56;9.07;;;4.65;;
23404;SDS011;11875;49.356;2.718;2023-06-14T14:10:23;7.28;;;4.18;;
23404;SDS011;11875;49.356;2.718;2023-06-14T14:12:50;6.72;;;4.47;;
23404;SDS011;11875;49.356;2.718;2023-06-14T14:15:16;6.82;;;4.25;;
23404;SDS011;11875;49.356;2.718;2023-06-14T14:17:41;8.32;;;4.68;;
23404;SDS011;11875;49.356;2.718;2023-06-14T14:20:08;9.73;;;4.55;;
23404;SDS011;11875;49.356;2.718;2023-06-14T14:22:34;8.48;;;5.00;;
23404;SDS011;11875;49.356;2.718;2023-06-14T14:24:59;5.72;;;4.72;;
23404;SDS011;11875;49.356;2.718;2023-06-14T14:27:25;6.00;;;4.07;;
23404;SDS011;11875;49.356;2.718;2023-06-14T14:29:50;5.38;;;4.70;;
23404;SDS011;11875;49.356;2.718;2023-06-14T14:32:16;6.30;;;4.40;;
23404;SDS011;11875;49.356;2.718;2023-06-14T14:34:42;6.03;;;4.50;;
23404;SDS011;11875;49.356;2.718;2023-06-14T14:37:07;10.73;;;4.82;;
23404;SDS011;11875;49.356;2.718;2023-06-14T14:39:33;4.82;;;4.32;;
23404;SDS011;11875;49.356;2.718;2023-06-14T14:41:59;5.25;;;4.45;;
23404;SDS011;11875;49.356;2.718;2023-06-14T14:44:25;5.20;;;4.65;;
23404;SDS011;11875;49.356;2.718;2023-06-14T14:46:50;7.20;;;4.50;;
23404;SDS011;11875;49.356;2.718;2023-06-14T14:49:16;8.35;;;4.40;;
23404;SDS011;11875;49.356;2.718;2023-06-14T14:51:42;8.60;;;4.43;;
23404;SDS011;11875;49.356;2.718;2023-06-14T14:54:07;5.88;;;4.65;;
23404;SDS011;11875;49.356;2.718;2023-06-14T14:56:33;8.65;;;4.32;;
23404;SDS011;11875;49.356;2.718;2023-06-14T14:59:00;5.53;;;5.03;;
23404;SDS011;11875;49.356;2.718;2023-06-14T15:01:26;7.50;;;4.72;;